| time (UTC) | temp F | wind direction | speed MPH | gust MPH | rain 1hr in | rain 24hr in | rain mn in | humidity % | barometer mb |
| 20260508150041 | 71 | 300 | 11.0 | 0.0 | 0.00 | 0.00 | 0.00 | 46 | 1018.0 |
| 20260508140041 | 71 | 310 | 9.0 | 0.0 | 0.00 | 0.00 | 0.00 | 43 | 1018.0 |
| 20260508133042 | 73 | 310 | 7.0 | 0.0 | 0.00 | 0.00 | 0.00 | 46 | 1018.0 |
| 20260508123043 | 71 | 320 | 7.0 | 0.0 | 0.00 | 0.00 | 0.00 | 43 | 1018.0 |
| 20260508120043 | 69 | 320 | 7.0 | 0.0 | 0.00 | 0.00 | 0.00 | 49 | 1018.0 |
| 20260508113043 | 69 | 320 | 9.0 | 0.0 | 0.00 | 0.00 | 0.00 | 49 | 1019.0 |
| 20260508110042 | 71 | 310 | 11.0 | 0.0 | 0.00 | 0.00 | 0.00 | 49 | 1019.0 |
| 20260508103042 | 69 | 300 | 11.0 | 0.0 | 0.00 | 0.00 | 0.00 | 52 | 1019.0 |
| 20260508100041 | 69 | 270 | 16.0 | 0.0 | 0.00 | 0.00 | 0.00 | 56 | 1019.0 |
| 20260508093043 | 68 | 290 | 13.0 | 0.0 | 0.00 | 0.00 | 0.00 | 56 | 1019.0 |
| 20260508090042 | 66 | 280 | 18.0 | 0.0 | 0.00 | 0.00 | 0.00 | 59 | 1019.0 |
| 20260508083042 | 64 | 280 | 16.0 | 0.0 | 0.00 | 0.00 | 0.00 | 63 | 1020.0 |
| 20260508080041 | 64 | 290 | 16.0 | 0.0 | 0.00 | 0.00 | 0.00 | 59 | 1020.0 |
| 20260508073042 | 62 | 290 | 16.0 | 0.0 | 0.00 | 0.00 | 0.00 | 67 | 1020.0 |
| 20260508070042 | 60 | 280 | 16.0 | 0.0 | 0.00 | 0.00 | 0.00 | 72 | 1020.0 |
| 20260508063042 | 59 | 280 | 13.0 | 0.0 | 0.00 | 0.00 | 0.00 | 76 | 1020.0 |
| 20260508060042 | 59 | 270 | 13.0 | 0.0 | 0.00 | 0.00 | 0.00 | 76 | 1020.0 |
| 20260508053042 | 57 | 270 | 11.0 | 0.0 | 0.00 | 0.00 | 0.00 | 76 | 1021.0 |
| 20260508050043 | 55 | 270 | 11.0 | 0.0 | 0.00 | 0.00 | 0.00 | 76 | 1021.0 |
| 20260508043042 | 53 | 300 | 11.0 | 0.0 | 0.00 | 0.00 | 0.00 | 81 | 1021.0 |
| 20260508040042 | 53 | 310 | 9.0 | 0.0 | 0.00 | 0.00 | 0.00 | 81 | 1020.0 |
| 20260508033042 | 53 | 270 | 13.0 | 0.0 | 0.00 | 0.00 | 0.00 | 81 | 1020.0 |
| 20260508030044 | 51 | 260 | 13.0 | 0.0 | 0.00 | 0.00 | 0.00 | 81 | 1020.0 |
| 20260508023043 | 50 | 280 | 9.0 | 0.0 | 0.00 | 0.00 | 0.00 | 87 | 1020.0 |
| 20260508020042 | 51 | 260 | 11.0 | 0.0 | 0.00 | 0.00 | 0.00 | 81 | 1020.0 |
| 20260508013046 | 51 | 260 | 11.0 | 0.0 | 0.00 | 0.00 | 0.00 | 81 | 1020.0 |
| 20260508003042 | 51 | 310 | 11.0 | 0.0 | 0.00 | 0.00 | 0.00 | 87 | 1020.0 |
| 20260508000043 | 50 | 310 | 9.0 | 0.0 | 0.00 | 0.00 | 0.00 | 87 | 1020.0 |
| 20260507233042 | 50 | 300 | 9.0 | 0.0 | 0.00 | 0.00 | 0.00 | 87 | 1019.0 |
| 20260507230043 | 50 | 300 | 11.0 | 0.0 | 0.00 | 0.00 | 0.00 | 87 | 1019.0 |
| 20260507223042 | 50 | 300 | 11.0 | 0.0 | 0.00 | 0.00 | 0.00 | 87 | 1019.0 |
| 20260507220043 | 50 | 300 | 9.0 | 0.0 | 0.00 | 0.00 | 0.00 | 87 | 1019.0 |
| 20260507213042 | 50 | 310 | 7.0 | 0.0 | 0.00 | 0.00 | 0.00 | 87 | 1019.0 |
| 20260507210043 | 50 | 290 | 9.0 | 0.0 | 0.00 | 0.00 | 0.00 | 87 | 1019.0 |
| 20260507203043 | 51 | 310 | 7.0 | 0.0 | 0.00 | 0.00 | 0.00 | 87 | 1019.0 |
| 20260507200043 | 51 | 290 | 9.0 | 0.0 | 0.00 | 0.00 | 0.00 | 87 | 1019.0 |
| 20260507193044 | 53 | 300 | 7.0 | 0.0 | 0.00 | 0.00 | 0.00 | 81 | 1019.0 |
| 20260507190044 | 53 | 250 | 7.0 | 0.0 | 0.00 | 0.00 | 0.00 | 81 | 1019.0 |
| 20260507180044 | 57 | 260 | 9.0 | 0.0 | 0.00 | 0.00 | 0.00 | 76 | 1019.0 |
| 20260507173044 | 57 | 250 | 9.0 | 0.0 | 0.00 | 0.00 | 0.00 | 76 | 1019.0 |
| 20260507170044 | 57 | 270 | 7.0 | 0.0 | 0.00 | 0.00 | 0.00 | 76 | 1018.0 |
| 20260507163046 | 60 | 270 | 9.0 | 0.0 | 0.00 | 0.00 | 0.00 | 72 | 1018.0 |
| 20260507160043 | 60 | 300 | 11.0 | 0.0 | 0.00 | 0.00 | 0.00 | 72 | 1018.0 |